createdAt,value
2023-07-25T00:01:33.961Z,81.33
2023-07-25T00:04:06.476Z,81.59
2023-07-25T00:06:34.649Z,81.71
2023-07-25T00:09:03.255Z,81.87
2023-07-25T00:11:31.827Z,81.95
2023-07-25T00:14:00.147Z,82.15
2023-07-25T00:16:29.795Z,82.34
2023-07-25T00:18:58.243Z,82.43
2023-07-25T00:21:28.038Z,82.66
2023-07-25T00:23:57.786Z,82.67
2023-07-25T00:26:27.032Z,83.06
2023-07-25T00:28:57.865Z,83.00
2023-07-25T00:31:26.197Z,82.96
2023-07-25T00:33:54.632Z,83.39
2023-07-25T00:36:22.743Z,83.40
2023-07-25T00:38:52.237Z,83.73
2023-07-25T00:41:20.375Z,83.67
2023-07-25T00:43:48.870Z,83.84
2023-07-25T00:46:18.934Z,84.00
2023-07-25T00:48:48.334Z,84.09
2023-07-25T00:51:26.141Z,84.44
2023-07-25T00:53:55.801Z,84.58
2023-07-25T00:56:24.166Z,84.82
2023-07-25T00:58:53.286Z,85.00
2023-07-25T01:01:21.786Z,85.11
2023-07-25T01:03:51.022Z,85.03
2023-07-25T01:06:19.546Z,85.19
2023-07-25T01:08:51.120Z,85.44
2023-07-25T01:11:23.626Z,85.58
2023-07-25T01:13:53.390Z,85.58
2023-07-25T01:16:25.360Z,85.96
2023-07-25T01:18:54.065Z,85.89
2023-07-25T01:21:24.078Z,86.24
2023-07-25T01:23:52.514Z,86.20
2023-07-25T01:26:23.388Z,86.40
2023-07-25T01:28:52.895Z,86.42
2023-07-25T01:31:21.030Z,86.60
2023-07-25T01:33:50.590Z,86.84
2023-07-25T01:36:19.010Z,87.04
2023-07-25T01:38:47.772Z,87.05
2023-07-25T01:41:16.062Z,87.10
2023-07-25T01:43:46.469Z,87.24
2023-07-25T01:46:14.591Z,87.20
2023-07-25T01:48:43.654Z,87.23
2023-07-25T01:51:16.557Z,87.43
2023-07-25T01:53:45.730Z,87.51
2023-07-25T01:56:16.230Z,87.47
2023-07-25T01:58:46.315Z,87.83
2023-07-25T02:01:14.988Z,87.63
2023-07-25T02:03:43.193Z,87.81
2023-07-25T02:06:11.824Z,87.70
2023-07-25T02:08:40.129Z,87.60
2023-07-25T02:11:09.282Z,87.71
2023-07-25T02:13:39.045Z,87.71
2023-07-25T02:16:09.099Z,87.92
2023-07-25T02:18:38.634Z,87.99
2023-07-25T02:21:07.361Z,88.11
2023-07-25T02:23:38.094Z,88.09
2023-07-25T02:26:10.420Z,88.29
2023-07-25T02:28:38.747Z,88.51
2023-07-25T02:31:10.245Z,88.63
2023-07-25T02:33:38.371Z,88.74
2023-07-25T02:36:07.473Z,88.99
2023-07-25T02:38:35.587Z,89.29
2023-07-25T02:41:05.063Z,89.38
2023-07-25T02:43:33.784Z,89.20
2023-07-25T02:46:01.952Z,89.10
2023-07-25T02:48:33.934Z,89.77
2023-07-25T02:51:02.049Z,89.55
2023-07-25T02:53:30.627Z,89.65
2023-07-25T02:56:01.307Z,89.54
2023-07-25T02:58:29.403Z,89.47
2023-07-25T03:00:57.755Z,89.71
2023-07-25T03:03:26.194Z,89.63
2023-07-25T03:05:57.300Z,89.90
2023-07-25T03:08:25.401Z,89.82
2023-07-25T03:11:02.044Z,89.99
2023-07-25T03:13:30.353Z,89.96
2023-07-25T03:15:58.441Z,89.96
2023-07-25T03:18:28.424Z,90.13
2023-07-25T03:20:58.013Z,90.31
2023-07-25T03:23:28.229Z,90.28
2023-07-25T03:25:56.043Z,90.28
2023-07-25T03:28:25.156Z,90.02
2023-07-25T03:30:53.335Z,90.16
2023-07-25T03:33:24.294Z,90.54
2023-07-25T03:35:52.432Z,90.57
2023-07-25T03:38:23.768Z,90.59
2023-07-25T03:40:51.847Z,90.71
2023-07-25T03:43:22.136Z,90.94
2023-07-25T03:45:50.943Z,91.13
2023-07-25T03:48:24.171Z,91.20
2023-07-25T03:50:52.708Z,91.32
2023-07-25T03:53:22.865Z,91.54
2023-07-25T03:55:51.250Z,91.48
2023-07-25T03:58:20.894Z,91.58
2023-07-25T04:00:50.976Z,91.79
2023-07-25T04:03:19.525Z,91.79
2023-07-25T04:05:47.677Z,92.01
2023-07-25T04:08:16.004Z,92.23
2023-07-25T04:10:45.751Z,92.15
2023-07-25T04:13:16.050Z,91.94
2023-07-25T04:15:46.435Z,92.03
2023-07-25T04:18:14.632Z,91.51
2023-07-25T04:20:42.793Z,91.87
2023-07-25T04:23:10.970Z,92.04
2023-07-25T04:25:39.288Z,92.00
2023-07-25T04:28:09.608Z,92.19
2023-07-25T04:30:37.885Z,92.37
2023-07-25T04:33:06.553Z,92.03
2023-07-25T04:35:34.699Z,92.10
2023-07-25T04:38:04.138Z,91.75
2023-07-25T04:40:32.736Z,91.78
2023-07-25T04:43:00.979Z,91.72
2023-07-25T04:45:30.542Z,91.85
2023-07-25T04:47:58.786Z,91.90
2023-07-25T04:50:27.249Z,92.03
2023-07-25T04:52:55.567Z,91.94
2023-07-25T04:55:23.827Z,92.15
2023-07-25T04:57:54.651Z,91.93
2023-07-25T05:00:23.773Z,91.75
2023-07-25T05:02:53.441Z,91.68
2023-07-25T05:05:22.232Z,91.57
2023-07-25T05:07:52.200Z,91.51
2023-07-25T05:10:20.867Z,91.53
2023-07-25T05:12:48.984Z,91.47
2023-07-25T05:15:17.193Z,91.71
2023-07-25T05:17:47.306Z,91.67
2023-07-25T05:20:16.746Z,91.71
2023-07-25T05:22:50.228Z,91.30
2023-07-25T05:25:18.794Z,91.31
2023-07-25T05:27:49.172Z,91.26
2023-07-25T05:30:17.705Z,91.33
2023-07-25T05:32:47.468Z,91.23
2023-07-25T05:35:18.019Z,91.15
2023-07-25T05:37:47.742Z,91.11
2023-07-25T05:40:16.120Z,90.80
2023-07-25T05:42:45.024Z,90.70
2023-07-25T05:45:15.964Z,90.56
2023-07-25T05:47:44.848Z,90.29
2023-07-25T05:50:13.834Z,90.34
2023-07-25T05:52:46.505Z,89.86
2023-07-25T05:55:14.955Z,89.76
2023-07-25T05:57:44.282Z,89.46
2023-07-25T06:00:14.518Z,89.35
2023-07-25T06:02:42.632Z,89.25
2023-07-25T06:05:11.378Z,88.48
2023-07-25T06:07:39.854Z,88.48
2023-07-25T06:10:10.393Z,88.51
2023-07-25T06:12:38.727Z,88.25
2023-07-25T06:15:09.058Z,88.21
2023-07-25T06:17:38.850Z,87.93
2023-07-25T06:20:08.481Z,87.92
2023-07-25T06:22:38.836Z,87.63
2023-07-25T06:25:10.129Z,87.63
2023-07-25T06:27:41.447Z,87.32
2023-07-25T06:30:16.087Z,87.13
2023-07-25T06:32:47.716Z,86.81
2023-07-25T06:35:21.346Z,86.59
2023-07-25T06:37:50.131Z,86.44
2023-07-25T06:40:18.770Z,86.04
2023-07-25T06:42:49.703Z,85.75
2023-07-25T06:45:20.732Z,85.62
2023-07-25T06:47:49.416Z,85.21
2023-07-25T06:50:20.170Z,84.93
2023-07-25T06:52:52.959Z,84.67
2023-07-25T06:55:21.376Z,84.54
2023-07-25T06:57:58.928Z,84.08
2023-07-25T07:00:28.838Z,83.76
2023-07-25T07:02:58.804Z,83.48
2023-07-25T07:05:30.615Z,83.39
2023-07-25T07:08:05.274Z,82.85
2023-07-25T07:10:36.740Z,82.63
2023-07-25T07:13:09.397Z,82.46
2023-07-25T07:15:38.930Z,82.05
2023-07-25T07:18:08.415Z,81.63
2023-07-25T07:20:36.807Z,81.40
2023-07-25T07:23:05.479Z,81.23
2023-07-25T07:25:38.082Z,80.56
2023-07-25T07:28:07.866Z,79.97
2023-07-25T07:30:35.973Z,79.72
2023-07-25T07:33:04.152Z,79.16
2023-07-25T07:35:32.265Z,78.75
2023-07-25T07:38:00.772Z,78.37
2023-07-25T07:40:29.650Z,78.02
2023-07-25T07:42:57.826Z,77.85
2023-07-25T07:45:28.658Z,77.32
2023-07-25T07:47:56.811Z,76.43
2023-07-25T07:50:25.199Z,76.13
2023-07-25T07:52:53.273Z,76.02
2023-07-25T07:55:24.962Z,75.39
2023-07-25T07:57:54.175Z,75.02
2023-07-25T08:00:22.500Z,74.21
2023-07-25T08:02:52.990Z,73.72
2023-07-25T08:05:21.458Z,72.35
2023-07-25T08:07:50.333Z,72.16
2023-07-25T08:10:19.131Z,71.74
2023-07-25T08:12:47.485Z,71.09
2023-07-25T08:15:15.663Z,69.88
2023-07-25T08:17:45.025Z,69.64
2023-07-25T08:20:15.030Z,69.12
2023-07-25T08:22:43.140Z,68.75
2023-07-25T08:25:12.792Z,67.69
2023-07-25T08:27:41.007Z,67.41
2023-07-25T08:30:10.367Z,66.54
2023-07-25T08:32:39.154Z,66.17
2023-07-25T08:35:07.968Z,61.32
2023-07-25T08:37:37.497Z,57.42
2023-07-25T08:40:07.110Z,54.58
2023-07-25T08:42:37.776Z,52.27
2023-07-25T08:45:08.750Z,49.34
2023-07-25T08:47:41.413Z,47.14
2023-07-25T08:50:14.351Z,46.40
2023-07-25T08:52:50.475Z,46.01
2023-07-25T08:55:19.514Z,42.78
2023-07-25T08:57:48.890Z,41.13
2023-07-25T09:00:19.602Z,38.15
2023-07-25T09:02:51.806Z,37.88
2023-07-25T09:05:23.045Z,36.93
2023-07-25T09:07:52.833Z,37.92
2023-07-25T09:10:21.045Z,38.21
2023-07-25T09:12:49.226Z,37.93
2023-07-25T09:15:18.828Z,37.40
2023-07-25T09:17:47.541Z,36.37
2023-07-25T09:20:16.089Z,36.15
2023-07-25T09:22:49.199Z,35.59
2023-07-25T09:25:19.106Z,36.30
2023-07-25T09:27:48.058Z,37.80
2023-07-25T09:30:17.391Z,38.38
2023-07-25T09:32:49.520Z,39.23
2023-07-25T09:35:18.542Z,40.34
2023-07-25T09:37:56.929Z,40.89
2023-07-25T09:40:26.721Z,41.31
2023-07-25T09:42:55.122Z,40.77
2023-07-25T09:45:23.497Z,41.49
2023-07-25T09:47:55.927Z,41.05
2023-07-25T09:50:28.052Z,40.47
2023-07-25T09:52:56.078Z,41.08
2023-07-25T09:55:24.209Z,41.73
2023-07-25T09:57:56.125Z,41.61
2023-07-25T10:00:25.096Z,41.52
2023-07-25T10:02:54.738Z,40.88
2023-07-25T10:05:26.142Z,41.20
2023-07-25T10:07:57.717Z,42.26
2023-07-25T10:10:29.506Z,42.37
2023-07-25T10:12:59.324Z,42.01
2023-07-25T10:15:29.165Z,40.80
2023-07-25T10:18:03.917Z,40.83
2023-07-25T10:20:32.544Z,41.84
2023-07-25T10:23:10.589Z,42.60
2023-07-25T10:25:38.806Z,42.80
2023-07-25T10:28:10.222Z,42.06
2023-07-25T10:30:44.638Z,42.52
2023-07-25T10:33:14.718Z,42.60
2023-07-25T10:35:50.814Z,42.38
2023-07-25T10:38:34.083Z,41.51
2023-07-25T10:41:03.900Z,40.56
2023-07-25T10:43:58.260Z,40.48
2023-07-25T10:46:30.187Z,40.67
2023-07-25T10:49:00.788Z,42.03
2023-07-25T10:51:53.464Z,42.92
2023-07-25T10:54:25.467Z,42.34
2023-07-25T10:57:15.862Z,40.41
2023-07-25T11:00:05.987Z,40.55
2023-07-25T11:02:37.730Z,40.62
2023-07-25T11:05:24.878Z,41.28
2023-07-25T11:07:56.949Z,42.19
2023-07-25T11:10:26.692Z,43.24
2023-07-25T11:12:59.338Z,42.25
2023-07-25T11:15:45.621Z,42.54
2023-07-25T11:18:17.256Z,41.46
2023-07-25T11:20:45.528Z,40.29
2023-07-25T11:23:14.387Z,39.87
2023-07-25T11:25:42.766Z,39.24
2023-07-25T11:28:11.060Z,39.16
2023-07-25T11:30:45.133Z,39.32
2023-07-25T11:33:13.889Z,39.07
2023-07-25T11:35:42.660Z,39.21
2023-07-25T11:38:11.817Z,40.07
2023-07-25T11:40:43.116Z,39.78
2023-07-25T11:43:14.252Z,39.39
2023-07-25T11:45:46.554Z,38.59
2023-07-25T11:48:21.754Z,38.47
2023-07-25T11:50:54.370Z,38.02
2023-07-25T11:53:25.015Z,36.94
2023-07-25T11:55:53.689Z,37.23
2023-07-25T11:58:24.017Z,36.37
2023-07-25T12:01:00.161Z,36.30
2023-07-25T12:03:29.259Z,35.53
2023-07-25T12:05:59.295Z,34.46
2023-07-25T12:08:34.204Z,33.65
2023-07-25T12:11:04.858Z,33.42
2023-07-25T12:13:33.938Z,33.37
2023-07-25T12:16:04.043Z,33.56
2023-07-25T12:18:34.479Z,34.86
2023-07-25T12:21:04.261Z,35.80
2023-07-25T12:23:40.151Z,36.12
2023-07-25T12:26:10.085Z,37.62
2023-07-25T12:28:42.820Z,38.49
2023-07-25T12:31:13.690Z,39.31
2023-07-25T12:33:45.334Z,39.88
2023-07-25T12:36:14.371Z,40.16
2023-07-25T12:38:43.339Z,40.88
2023-07-25T12:41:12.795Z,40.81
2023-07-25T12:43:41.195Z,40.59
2023-07-25T12:46:10.765Z,40.49
2023-07-25T12:48:40.442Z,40.79
2023-07-25T12:51:08.813Z,40.44
2023-07-25T12:53:37.560Z,40.05
2023-07-25T12:56:06.259Z,40.03
2023-07-25T12:58:34.830Z,40.73
2023-07-25T13:01:03.308Z,41.12
2023-07-25T13:03:32.506Z,41.51
2023-07-25T13:06:02.390Z,41.90
2023-07-25T13:08:31.061Z,41.67
2023-07-25T13:10:59.371Z,41.80
2023-07-25T13:13:27.657Z,41.81
2023-07-25T13:15:55.914Z,42.13
2023-07-25T13:18:24.588Z,42.31
2023-07-25T13:20:53.200Z,42.10
2023-07-25T13:23:22.926Z,41.36
2023-07-25T13:25:52.998Z,40.35
2023-07-25T13:28:21.205Z,39.70
2023-07-25T13:30:49.695Z,39.34
2023-07-25T13:33:18.234Z,39.43
2023-07-25T13:35:46.535Z,39.35
2023-07-25T13:38:14.786Z,39.19
2023-07-25T13:40:44.567Z,39.94
2023-07-25T13:43:13.086Z,40.04
2023-07-25T13:45:51.803Z,39.89
2023-07-25T13:48:23.638Z,39.91
2023-07-25T13:50:54.860Z,40.28
2023-07-25T13:53:24.041Z,39.96
2023-07-25T13:55:55.981Z,39.39
2023-07-25T13:58:31.157Z,39.33
2023-07-25T14:00:59.527Z,39.23
2023-07-25T14:03:31.317Z,39.14
2023-07-25T14:06:00.114Z,39.03
2023-07-25T14:08:28.525Z,39.26
2023-07-25T14:10:58.457Z,38.82
2023-07-25T14:13:27.429Z,38.65
2023-07-25T14:15:56.118Z,39.39
2023-07-25T14:18:24.622Z,39.21
2023-07-25T14:20:53.856Z,39.31
2023-07-25T14:23:23.896Z,39.88
2023-07-25T14:25:52.054Z,40.18
2023-07-25T14:28:22.034Z,40.45
2023-07-25T14:30:50.316Z,40.49
2023-07-25T14:33:21.909Z,40.94
2023-07-25T14:35:50.490Z,40.30
2023-07-25T14:38:19.625Z,40.56
2023-07-25T14:40:48.183Z,40.69
2023-07-25T14:43:16.565Z,40.97
2023-07-25T14:45:46.576Z,40.86
2023-07-25T14:48:14.786Z,41.19
2023-07-25T14:50:43.551Z,41.84
2023-07-25T14:53:12.118Z,41.60
2023-07-25T14:55:40.550Z,41.90
2023-07-25T14:58:08.911Z,42.12
2023-07-25T15:00:37.514Z,42.48
2023-07-25T15:03:07.512Z,42.37
2023-07-25T15:05:35.496Z,42.29
2023-07-25T15:08:03.825Z,42.33
2023-07-25T15:10:32.535Z,42.43
2023-07-25T15:13:00.793Z,42.53
2023-07-25T15:15:29.222Z,42.08
2023-07-25T15:17:57.864Z,41.33
2023-07-25T15:20:30.141Z,41.33
2023-07-25T15:22:58.461Z,41.04
2023-07-25T15:25:28.646Z,40.96
2023-07-25T15:27:57.347Z,40.57
2023-07-25T15:30:27.263Z,40.80
2023-07-25T15:32:55.708Z,40.96
2023-07-25T15:35:28.777Z,41.90
2023-07-25T15:37:57.536Z,43.21
2023-07-25T15:40:26.380Z,44.27
2023-07-25T15:42:54.629Z,45.47
2023-07-25T15:45:22.870Z,46.52
2023-07-25T15:47:52.246Z,47.33
2023-07-25T15:50:23.202Z,48.15
2023-07-25T15:52:52.949Z,48.37
2023-07-25T15:55:23.223Z,48.35
2023-07-25T15:57:53.546Z,48.29
2023-07-25T16:00:21.997Z,48.20
2023-07-25T16:02:50.223Z,48.20
2023-07-25T16:05:18.748Z,48.85
2023-07-25T16:07:47.084Z,49.63
2023-07-25T16:10:16.927Z,49.67
2023-07-25T16:12:45.532Z,49.89
2023-07-25T16:15:13.797Z,50.73
2023-07-25T16:17:42.049Z,50.30
2023-07-25T16:20:10.786Z,50.33
2023-07-25T16:22:40.427Z,50.34
2023-07-25T16:25:09.349Z,50.77
2023-07-25T16:27:41.107Z,51.06
2023-07-25T16:30:11.256Z,51.06
2023-07-25T16:32:39.778Z,51.49
2023-07-25T16:35:08.430Z,52.31
2023-07-25T16:37:36.760Z,52.76
2023-07-25T16:40:05.893Z,53.19
2023-07-25T16:42:34.282Z,53.18
2023-07-25T16:45:04.150Z,53.49
2023-07-25T16:47:32.457Z,53.81
2023-07-25T16:50:00.798Z,54.28
2023-07-25T16:52:29.633Z,54.35
2023-07-25T16:54:57.843Z,54.04
2023-07-25T16:57:26.291Z,55.01
2023-07-25T16:59:55.873Z,55.58
2023-07-25T17:02:25.877Z,55.54
2023-07-25T17:04:55.404Z,56.05
2023-07-25T17:07:23.693Z,56.36
2023-07-25T17:09:51.993Z,57.39
2023-07-25T17:12:20.538Z,57.89
2023-07-25T17:14:49.308Z,58.44
2023-07-25T17:17:18.064Z,59.02
2023-07-25T17:19:47.748Z,59.35
2023-07-25T17:22:15.998Z,59.74
2023-07-25T17:24:44.672Z,60.05
2023-07-25T17:27:13.110Z,60.25
2023-07-25T17:29:41.382Z,60.31
2023-07-25T17:32:10.223Z,60.17
2023-07-25T17:34:38.443Z,60.46
2023-07-25T17:37:08.788Z,59.95
2023-07-25T17:39:37.338Z,60.37
2023-07-25T17:42:05.607Z,60.23
2023-07-25T17:44:34.079Z,60.28
2023-07-25T17:47:02.515Z,60.26
2023-07-25T17:49:30.726Z,60.18
2023-07-25T17:51:59.028Z,60.30
2023-07-25T17:54:28.659Z,60.09
2023-07-25T17:56:56.896Z,60.07
2023-07-25T17:59:25.240Z,60.05
2023-07-25T18:01:53.926Z,60.32
2023-07-25T18:04:22.296Z,60.22
2023-07-25T18:06:51.752Z,59.70
2023-07-25T18:09:20.233Z,60.23
2023-07-25T18:11:50.217Z,60.17
2023-07-25T18:14:18.569Z,60.14
2023-07-25T18:16:47.283Z,60.46
2023-07-25T18:19:15.734Z,60.51
2023-07-25T18:21:43.972Z,60.88
2023-07-25T18:24:13.427Z,61.15
2023-07-25T18:26:43.377Z,61.35
2023-07-25T18:29:13.378Z,61.44
2023-07-25T18:31:41.620Z,62.46
2023-07-25T18:34:11.003Z,62.81
2023-07-25T18:36:39.720Z,63.79
2023-07-25T18:39:12.350Z,64.09
2023-07-25T18:41:40.580Z,64.28
2023-07-25T18:44:08.994Z,64.58
2023-07-25T18:46:40.583Z,64.84
2023-07-25T18:49:09.406Z,64.77
2023-07-25T18:51:37.694Z,64.70
2023-07-25T18:54:09.164Z,64.96
2023-07-25T18:56:38.361Z,65.19
2023-07-25T18:59:06.957Z,65.67
2023-07-25T19:01:36.053Z,65.48
2023-07-25T19:04:06.273Z,65.84
2023-07-25T19:06:34.854Z,65.98
2023-07-25T19:09:03.313Z,66.37
2023-07-25T19:11:31.588Z,67.16
2023-07-25T19:13:59.856Z,67.95
2023-07-25T19:16:28.137Z,68.21
2023-07-25T19:18:56.442Z,68.64
2023-07-25T19:21:26.098Z,69.33
2023-07-25T19:23:54.407Z,69.37
2023-07-25T19:26:25.648Z,69.67
2023-07-25T19:28:53.990Z,70.06
2023-07-25T19:31:22.160Z,70.20
2023-07-25T19:33:50.711Z,70.05
2023-07-25T19:36:19.083Z,69.92
2023-07-25T19:38:48.947Z,70.16
2023-07-25T19:41:17.663Z,70.43
2023-07-25T19:43:49.180Z,70.76
2023-07-25T19:46:17.497Z,70.80
2023-07-25T19:48:46.313Z,71.01
2023-07-25T19:51:16.749Z,71.36
2023-07-25T19:53:45.340Z,71.52
2023-07-25T19:56:15.817Z,71.86
2023-07-25T19:58:44.193Z,71.99
2023-07-25T20:01:14.782Z,72.16
2023-07-25T20:03:44.422Z,72.65
2023-07-25T20:06:13.133Z,72.87
2023-07-25T20:08:41.358Z,73.06
2023-07-25T20:11:14.315Z,73.13
2023-07-25T20:13:44.206Z,73.45
2023-07-25T20:16:13.969Z,73.64
2023-07-25T20:18:42.219Z,73.82
2023-07-25T20:21:12.757Z,73.99
2023-07-25T20:23:40.961Z,74.26
2023-07-25T20:26:09.606Z,74.28
2023-07-25T20:28:40.198Z,74.52
2023-07-25T20:31:10.216Z,74.89
2023-07-25T20:33:38.557Z,75.02
2023-07-25T20:36:07.098Z,75.29
2023-07-25T20:38:35.590Z,75.68
2023-07-25T20:41:04.860Z,75.57
2023-07-25T20:43:33.104Z,76.24
2023-07-25T20:46:04.633Z,76.71
2023-07-25T20:48:37.058Z,77.13
2023-07-25T20:51:05.849Z,77.50
2023-07-25T20:53:34.049Z,77.79
2023-07-25T20:56:03.285Z,77.85
2023-07-25T20:58:33.306Z,78.15
2023-07-25T21:01:01.885Z,78.27
2023-07-25T21:03:30.313Z,78.73
2023-07-25T21:06:00.221Z,78.99
2023-07-25T21:08:28.681Z,78.92
2023-07-25T21:10:58.850Z,78.26
2023-07-25T21:13:26.909Z,77.81
2023-07-25T21:15:55.429Z,76.70
2023-07-25T21:18:23.790Z,76.11
2023-07-25T21:20:52.472Z,75.54
2023-07-25T21:23:23.706Z,74.96
2023-07-25T21:25:52.459Z,74.41
2023-07-25T21:28:20.997Z,73.99
2023-07-25T21:30:49.331Z,73.45
2023-07-25T21:33:17.631Z,73.08
2023-07-25T21:35:46.284Z,72.15
2023-07-25T21:38:14.459Z,71.81
2023-07-25T21:40:44.186Z,71.09
2023-07-25T21:43:12.548Z,70.74
2023-07-25T21:45:40.833Z,70.55
2023-07-25T21:48:10.588Z,70.35
2023-07-25T21:50:39.887Z,70.47
2023-07-25T21:53:08.220Z,70.33
2023-07-25T21:55:36.539Z,70.22
2023-07-25T21:58:06.764Z,70.09
2023-07-25T22:00:34.779Z,70.17
2023-07-25T22:03:03.174Z,69.79
2023-07-25T22:05:31.828Z,69.92
2023-07-25T22:08:00.208Z,69.78
2023-07-25T22:10:28.456Z,69.90
2023-07-25T22:12:57.315Z,70.11
2023-07-25T22:15:27.432Z,69.96
2023-07-25T22:17:56.015Z,70.18
2023-07-25T22:20:32.050Z,70.18
2023-07-25T22:23:07.036Z,70.28
2023-07-25T22:25:35.320Z,70.33
2023-07-25T22:28:03.704Z,70.67
2023-07-25T22:30:35.008Z,70.36
2023-07-25T22:33:03.467Z,70.49
2023-07-25T22:35:31.697Z,70.62
2023-07-25T22:38:01.105Z,70.81
2023-07-25T22:40:30.131Z,70.90
2023-07-25T22:42:58.509Z,71.23
2023-07-25T22:45:28.349Z,71.35
2023-07-25T22:47:58.382Z,71.60
2023-07-25T22:50:26.800Z,71.58
2023-07-25T22:52:55.217Z,71.66
2023-07-25T22:55:23.501Z,71.95
2023-07-25T22:57:51.700Z,72.39
2023-07-25T23:00:20.157Z,72.80
2023-07-25T23:02:50.184Z,73.15
2023-07-25T23:05:21.229Z,73.73
2023-07-25T23:07:49.652Z,74.17
2023-07-25T23:10:18.050Z,74.63
2023-07-25T23:12:46.391Z,75.15
2023-07-25T23:15:16.758Z,75.60
2023-07-25T23:17:45.665Z,76.07
2023-07-25T23:20:14.404Z,76.54
2023-07-25T23:22:44.091Z,76.90
2023-07-25T23:25:13.723Z,76.97
2023-07-25T23:27:41.910Z,77.27
2023-07-25T23:30:11.583Z,77.58
2023-07-25T23:32:41.291Z,77.75
2023-07-25T23:35:10.643Z,78.24
2023-07-25T23:37:38.926Z,78.51
2023-07-25T23:40:10.614Z,78.61
2023-07-25T23:42:38.834Z,78.83
2023-07-25T23:45:09.394Z,78.99
2023-07-25T23:47:37.652Z,79.17
2023-07-25T23:50:06.952Z,79.47
2023-07-25T23:52:37.591Z,79.60
2023-07-25T23:55:06.885Z,79.96
2023-07-25T23:57:36.993Z,80.29
